sensor_id;sensor_type;location;lat;lon;timestamp;P1;P2;P0
73631;PMS5003;61924;53.268;-2.458;2023-02-01T00:00:30;16;13;
73631;PMS5003;61924;53.268;-2.458;2023-02-01T00:02:56;12;11;
73631;PMS5003;61924;53.268;-2.458;2023-02-01T00:05:21;8;8;
73631;PMS5003;61924;53.268;-2.458;2023-02-01T00:07:47;16;16;
73631;PMS5003;61924;53.268;-2.458;2023-02-01T00:10:12;12;11;
73631;PMS5003;61924;53.268;-2.458;2023-02-01T00:12:37;7;7;
73631;PMS5003;61924;53.268;-2.458;2023-02-01T00:15:03;10;10;
73631;PMS5003;61924;53.268;-2.458;2023-02-01T00:17:28;15;10;
73631;PMS5003;61924;53.268;-2.458;2023-02-01T00:19:53;10;8;
73631;PMS5003;61924;53.268;-2.458;2023-02-01T00:22:19;8;7;
73631;PMS5003;61924;53.268;-2.458;2023-02-01T00:24:44;13;12;
73631;PMS5003;61924;53.268;-2.458;2023-02-01T00:27:10;7;7;
73631;PMS5003;61924;53.268;-2.458;2023-02-01T00:29:35;10;10;
73631;PMS5003;61924;53.268;-2.458;2023-02-01T00:32:01;9;8;
73631;PMS5003;61924;53.268;-2.458;2023-02-01T00:34:26;8;7;
73631;PMS5003;61924;53.268;-2.458;2023-02-01T00:36:52;7;6;
73631;PMS5003;61924;53.268;-2.458;2023-02-01T00:39:18;9;9;
73631;PMS5003;61924;53.268;-2.458;2023-02-01T00:41:43;9;9;
73631;PMS5003;61924;53.268;-2.458;2023-02-01T00:44:09;8;7;
73631;PMS5003;61924;53.268;-2.458;2023-02-01T00:46:35;7;6;
73631;PMS5003;61924;53.268;-2.458;2023-02-01T00:49:00;7;7;
73631;PMS5003;61924;53.268;-2.458;2023-02-01T00:51:26;5;5;
73631;PMS5003;61924;53.268;-2.458;2023-02-01T00:53:52;9;8;
73631;PMS5003;61924;53.268;-2.458;2023-02-01T00:56:17;6;6;
73631;PMS5003;61924;53.268;-2.458;2023-02-01T00:58:43;6;5;
73631;PMS5003;61924;53.268;-2.458;2023-02-01T01:01:09;7;7;
73631;PMS5003;61924;53.268;-2.458;2023-02-01T01:03:34;6;6;
73631;PMS5003;61924;53.268;-2.458;2023-02-01T01:06:00;9;8;
73631;PMS5003;61924;53.268;-2.458;2023-02-01T01:08:25;4;4;
73631;PMS5003;61924;53.268;-2.458;2023-02-01T01:10:50;6;6;
73631;PMS5003;61924;53.268;-2.458;2023-02-01T01:13:16;4;3;
73631;PMS5003;61924;53.268;-2.458;2023-02-01T01:15:42;5;5;
73631;PMS5003;61924;53.268;-2.458;2023-02-01T01:18:07;5;5;
73631;PMS5003;61924;53.268;-2.458;2023-02-01T01:20:33;7;7;
73631;PMS5003;61924;53.268;-2.458;2023-02-01T01:22:58;5;5;
73631;PMS5003;61924;53.268;-2.458;2023-02-01T01:25:24;9;8;
73631;PMS5003;61924;53.268;-2.458;2023-02-01T01:27:50;6;5;
73631;PMS5003;61924;53.268;-2.458;2023-02-01T01:30:16;5;5;
73631;PMS5003;61924;53.268;-2.458;2023-02-01T01:32:41;8;7;
73631;PMS5003;61924;53.268;-2.458;2023-02-01T01:35:06;5;4;
73631;PMS5003;61924;53.268;-2.458;2023-02-01T01:37:32;6;5;
73631;PMS5003;61924;53.268;-2.458;2023-02-01T01:39:57;5;5;
73631;PMS5003;61924;53.268;-2.458;2023-02-01T01:42:23;5;4;
73631;PMS5003;61924;53.268;-2.458;2023-02-01T01:44:56;4;4;
73631;PMS5003;61924;53.268;-2.458;2023-02-01T01:47:14;5;5;
73631;PMS5003;61924;53.268;-2.458;2023-02-01T01:49:39;6;6;
73631;PMS5003;61924;53.268;-2.458;2023-02-01T01:52:04;5;5;
73631;PMS5003;61924;53.268;-2.458;2023-02-01T01:54:31;4;4;
73631;PMS5003;61924;53.268;-2.458;2023-02-01T01:56:56;4;4;
73631;PMS5003;61924;53.268;-2.458;2023-02-01T01:59:21;5;5;
73631;PMS5003;61924;53.268;-2.458;2023-02-01T02:01:46;4;3;
73631;PMS5003;61924;53.268;-2.458;2023-02-01T02:04:11;5;4;
73631;PMS5003;61924;53.268;-2.458;2023-02-01T02:06:40;5;4;
73631;PMS5003;61924;53.268;-2.458;2023-02-01T02:09:03;5;5;
73631;PMS5003;61924;53.268;-2.458;2023-02-01T02:11:28;4;4;
73631;PMS5003;61924;53.268;-2.458;2023-02-01T02:13:54;8;6;
73631;PMS5003;61924;53.268;-2.458;2023-02-01T02:16:23;3;3;
73631;PMS5003;61924;53.268;-2.458;2023-02-01T02:18:46;5;4;
73631;PMS5003;61924;53.268;-2.458;2023-02-01T02:21:11;4;3;
73631;PMS5003;61924;53.268;-2.458;2023-02-01T02:23:43;5;5;
73631;PMS5003;61924;53.268;-2.458;2023-02-01T02:28:19;4;3;
73631;PMS5003;61924;53.268;-2.458;2023-02-01T02:30:47;6;6;
73631;PMS5003;61924;53.268;-2.458;2023-02-01T02:33:14;4;4;
73631;PMS5003;61924;53.268;-2.458;2023-02-01T02:33:52;4;4;
73631;PMS5003;61924;53.268;-2.458;2023-02-01T02:36:16;5;5;
73631;PMS5003;61924;53.268;-2.458;2023-02-01T02:38:42;5;5;
73631;PMS5003;61924;53.268;-2.458;2023-02-01T02:41:10;4;3;
73631;PMS5003;61924;53.268;-2.458;2023-02-01T02:43:32;5;5;
73631;PMS5003;61924;53.268;-2.458;2023-02-01T02:45:59;4;4;
73631;PMS5003;61924;53.268;-2.458;2023-02-01T02:48:24;6;5;
73631;PMS5003;61924;53.268;-2.458;2023-02-01T02:50:49;6;6;
73631;PMS5003;61924;53.268;-2.458;2023-02-01T02:53:15;5;4;
73631;PMS5003;61924;53.268;-2.458;2023-02-01T02:55:39;3;3;
73631;PMS5003;61924;53.268;-2.458;2023-02-01T02:58:04;3;3;
73631;PMS5003;61924;53.268;-2.458;2023-02-01T03:00:30;3;2;
73631;PMS5003;61924;53.268;-2.458;2023-02-01T03:02:55;2;2;
73631;PMS5003;61924;53.268;-2.458;2023-02-01T03:05:20;8;7;
73631;PMS5003;61924;53.268;-2.458;2023-02-01T03:07:50;4;4;
73631;PMS5003;61924;53.268;-2.458;2023-02-01T03:10:15;4;4;
73631;PMS5003;61924;53.268;-2.458;2023-02-01T03:12:37;3;3;
73631;PMS5003;61924;53.268;-2.458;2023-02-01T03:15:05;6;3;
73631;PMS5003;61924;53.268;-2.458;2023-02-01T03:17:30;4;4;
73631;PMS5003;61924;53.268;-2.458;2023-02-01T03:19:54;3;3;
73631;PMS5003;61924;53.268;-2.458;2023-02-01T03:22:20;5;5;
73631;PMS5003;61924;53.268;-2.458;2023-02-01T03:24:45;3;2;
73631;PMS5003;61924;53.268;-2.458;2023-02-01T03:27:10;4;4;
73631;PMS5003;61924;53.268;-2.458;2023-02-01T03:29:37;5;5;
73631;PMS5003;61924;53.268;-2.458;2023-02-01T03:32:00;3;3;
73631;PMS5003;61924;53.268;-2.458;2023-02-01T03:34:25;4;3;
73631;PMS5003;61924;53.268;-2.458;2023-02-01T03:36:52;4;3;
73631;PMS5003;61924;53.268;-2.458;2023-02-01T03:39:17;2;2;
73631;PMS5003;61924;53.268;-2.458;2023-02-01T03:41:43;4;4;
73631;PMS5003;61924;53.268;-2.458;2023-02-01T03:44:09;4;4;
73631;PMS5003;61924;53.268;-2.458;2023-02-01T03:46:35;3;3;
73631;PMS5003;61924;53.268;-2.458;2023-02-01T03:49:00;3;1;
73631;PMS5003;61924;53.268;-2.458;2023-02-01T03:51:24;4;4;
73631;PMS5003;61924;53.268;-2.458;2023-02-01T03:53:49;4;4;
73631;PMS5003;61924;53.268;-2.458;2023-02-01T03:56:15;11;10;
73631;PMS5003;61924;53.268;-2.458;2023-02-01T03:58:40;15;15;
73631;PMS5003;61924;53.268;-2.458;2023-02-01T04:01:05;29;23;
73631;PMS5003;61924;53.268;-2.458;2023-02-01T04:03:31;28;26;
73631;PMS5003;61924;53.268;-2.458;2023-02-01T04:05:56;37;34;
73631;PMS5003;61924;53.268;-2.458;2023-02-01T04:08:22;37;35;
73631;PMS5003;61924;53.268;-2.458;2023-02-01T04:10:48;40;38;
73631;PMS5003;61924;53.268;-2.458;2023-02-01T04:13:13;40;38;
73631;PMS5003;61924;53.268;-2.458;2023-02-01T04:15:38;51;47;
73631;PMS5003;61924;53.268;-2.458;2023-02-01T04:18:03;55;50;
73631;PMS5003;61924;53.268;-2.458;2023-02-01T04:20:28;52;50;
73631;PMS5003;61924;53.268;-2.458;2023-02-01T04:22:54;70;60;
73631;PMS5003;61924;53.268;-2.458;2023-02-01T04:25:20;59;51;
73631;PMS5003;61924;53.268;-2.458;2023-02-01T04:27:45;59;53;
73631;PMS5003;61924;53.268;-2.458;2023-02-01T04:30:11;49;46;
73631;PMS5003;61924;53.268;-2.458;2023-02-01T04:32:37;54;48;
73631;PMS5003;61924;53.268;-2.458;2023-02-01T04:35:02;55;51;
73631;PMS5003;61924;53.268;-2.458;2023-02-01T04:37:28;51;48;
73631;PMS5003;61924;53.268;-2.458;2023-02-01T04:39:53;53;50;
73631;PMS5003;61924;53.268;-2.458;2023-02-01T04:42:18;44;41;
73631;PMS5003;61924;53.268;-2.458;2023-02-01T04:44:44;50;45;
73631;PMS5003;61924;53.268;-2.458;2023-02-01T04:47:09;46;41;
73631;PMS5003;61924;53.268;-2.458;2023-02-01T04:49:35;45;41;
73631;PMS5003;61924;53.268;-2.458;2023-02-01T04:52:00;42;39;
73631;PMS5003;61924;53.268;-2.458;2023-02-01T04:54:26;50;46;
73631;PMS5003;61924;53.268;-2.458;2023-02-01T04:56:51;51;45;
73631;PMS5003;61924;53.268;-2.458;2023-02-01T04:59:16;39;35;
73631;PMS5003;61924;53.268;-2.458;2023-02-01T05:01:42;40;37;
73631;PMS5003;61924;53.268;-2.458;2023-02-01T05:04:07;45;41;
73631;PMS5003;61924;53.268;-2.458;2023-02-01T05:06:33;40;39;
73631;PMS5003;61924;53.268;-2.458;2023-02-01T05:08:59;37;33;
73631;PMS5003;61924;53.268;-2.458;2023-02-01T05:11:24;42;37;
73631;PMS5003;61924;53.268;-2.458;2023-02-01T05:13:50;32;31;
73631;PMS5003;61924;53.268;-2.458;2023-02-01T05:16:16;29;28;
73631;PMS5003;61924;53.268;-2.458;2023-02-01T05:18:41;34;32;
73631;PMS5003;61924;53.268;-2.458;2023-02-01T05:21:07;39;38;
73631;PMS5003;61924;53.268;-2.458;2023-02-01T05:23:32;40;33;
73631;PMS5003;61924;53.268;-2.458;2023-02-01T05:25:58;35;30;
73631;PMS5003;61924;53.268;-2.458;2023-02-01T05:28:24;30;29;
73631;PMS5003;61924;53.268;-2.458;2023-02-01T05:30:49;26;25;
73631;PMS5003;61924;53.268;-2.458;2023-02-01T05:33:14;29;27;
73631;PMS5003;61924;53.268;-2.458;2023-02-01T05:35:40;33;31;
73631;PMS5003;61924;53.268;-2.458;2023-02-01T05:38:05;32;29;
73631;PMS5003;61924;53.268;-2.458;2023-02-01T05:40:30;29;28;
73631;PMS5003;61924;53.268;-2.458;2023-02-01T05:42:56;31;28;
73631;PMS5003;61924;53.268;-2.458;2023-02-01T05:45:22;30;24;
73631;PMS5003;61924;53.268;-2.458;2023-02-01T05:47:48;30;28;
73631;PMS5003;61924;53.268;-2.458;2023-02-01T05:50:13;29;25;
73631;PMS5003;61924;53.268;-2.458;2023-02-01T05:52:39;31;27;
73631;PMS5003;61924;53.268;-2.458;2023-02-01T05:55:04;26;24;
73631;PMS5003;61924;53.268;-2.458;2023-02-01T05:57:30;28;26;
73631;PMS5003;61924;53.268;-2.458;2023-02-01T05:59:55;23;21;
73631;PMS5003;61924;53.268;-2.458;2023-02-01T06:02:20;21;19;
73631;PMS5003;61924;53.268;-2.458;2023-02-01T06:04:45;26;22;
73631;PMS5003;61924;53.268;-2.458;2023-02-01T06:07:10;25;23;
73631;PMS5003;61924;53.268;-2.458;2023-02-01T06:09:36;21;20;
73631;PMS5003;61924;53.268;-2.458;2023-02-01T06:12:01;19;18;
73631;PMS5003;61924;53.268;-2.458;2023-02-01T06:14:27;24;23;
73631;PMS5003;61924;53.268;-2.458;2023-02-01T06:16:52;20;18;
73631;PMS5003;61924;53.268;-2.458;2023-02-01T06:19:18;21;19;
73631;PMS5003;61924;53.268;-2.458;2023-02-01T06:21:43;24;20;
73631;PMS5003;61924;53.268;-2.458;2023-02-01T06:24:08;19;17;
73631;PMS5003;61924;53.268;-2.458;2023-02-01T06:26:34;18;17;
73631;PMS5003;61924;53.268;-2.458;2023-02-01T06:28:59;18;18;
73631;PMS5003;61924;53.268;-2.458;2023-02-01T06:31:25;21;20;
73631;PMS5003;61924;53.268;-2.458;2023-02-01T06:33:51;22;20;
73631;PMS5003;61924;53.268;-2.458;2023-02-01T06:36:15;22;21;
73631;PMS5003;61924;53.268;-2.458;2023-02-01T06:38:41;20;18;
73631;PMS5003;61924;53.268;-2.458;2023-02-01T06:41:06;16;16;
73631;PMS5003;61924;53.268;-2.458;2023-02-01T06:43:31;19;18;
73631;PMS5003;61924;53.268;-2.458;2023-02-01T06:45:59;17;15;
73631;PMS5003;61924;53.268;-2.458;2023-02-01T06:48:22;15;15;
73631;PMS5003;61924;53.268;-2.458;2023-02-01T06:50:48;19;16;
73631;PMS5003;61924;53.268;-2.458;2023-02-01T06:53:13;14;14;
73631;PMS5003;61924;53.268;-2.458;2023-02-01T06:55:39;15;14;
73631;PMS5003;61924;53.268;-2.458;2023-02-01T06:58:05;13;13;
73631;PMS5003;61924;53.268;-2.458;2023-02-01T07:00:30;16;13;
73631;PMS5003;61924;53.268;-2.458;2023-02-01T07:02:57;14;14;
73631;PMS5003;61924;53.268;-2.458;2023-02-01T07:05:21;13;13;
73631;PMS5003;61924;53.268;-2.458;2023-02-01T07:07:47;12;11;
73631;PMS5003;61924;53.268;-2.458;2023-02-01T07:10:12;15;13;
73631;PMS5003;61924;53.268;-2.458;2023-02-01T07:12:37;16;15;
73631;PMS5003;61924;53.268;-2.458;2023-02-01T07:15:02;14;12;
73631;PMS5003;61924;53.268;-2.458;2023-02-01T07:17:28;12;10;
73631;PMS5003;61924;53.268;-2.458;2023-02-01T07:19:53;12;11;
73631;PMS5003;61924;53.268;-2.458;2023-02-01T07:22:18;9;9;
73631;PMS5003;61924;53.268;-2.458;2023-02-01T07:24:44;10;10;
73631;PMS5003;61924;53.268;-2.458;2023-02-01T07:27:10;12;12;
73631;PMS5003;61924;53.268;-2.458;2023-02-01T07:29:35;13;13;
73631;PMS5003;61924;53.268;-2.458;2023-02-01T07:32:00;10;10;
73631;PMS5003;61924;53.268;-2.458;2023-02-01T07:34:26;9;9;
73631;PMS5003;61924;53.268;-2.458;2023-02-01T07:36:51;13;12;
73631;PMS5003;61924;53.268;-2.458;2023-02-01T07:39:17;14;12;
73631;PMS5003;61924;53.268;-2.458;2023-02-01T07:41:43;9;9;
73631;PMS5003;61924;53.268;-2.458;2023-02-01T07:44:09;7;6;
73631;PMS5003;61924;53.268;-2.458;2023-02-01T07:46:34;8;8;
73631;PMS5003;61924;53.268;-2.458;2023-02-01T07:49:00;8;8;
73631;PMS5003;61924;53.268;-2.458;2023-02-01T07:51:25;11;11;
73631;PMS5003;61924;53.268;-2.458;2023-02-01T07:53:51;13;12;
73631;PMS5003;61924;53.268;-2.458;2023-02-01T07:56:17;8;8;
73631;PMS5003;61924;53.268;-2.458;2023-02-01T07:58:42;10;9;
73631;PMS5003;61924;53.268;-2.458;2023-02-01T08:01:11;9;9;
73631;PMS5003;61924;53.268;-2.458;2023-02-01T08:03:32;10;9;
73631;PMS5003;61924;53.268;-2.458;2023-02-01T08:05:57;13;11;
73631;PMS5003;61924;53.268;-2.458;2023-02-01T08:08:22;13;13;
73631;PMS5003;61924;53.268;-2.458;2023-02-01T08:10:48;9;8;
73631;PMS5003;61924;53.268;-2.458;2023-02-01T08:13:13;8;7;
73631;PMS5003;61924;53.268;-2.458;2023-02-01T08:15:39;9;9;
73631;PMS5003;61924;53.268;-2.458;2023-02-01T08:18:04;8;7;
73631;PMS5003;61924;53.268;-2.458;2023-02-01T08:20:30;8;8;
73631;PMS5003;61924;53.268;-2.458;2023-02-01T08:22:55;10;9;
73631;PMS5003;61924;53.268;-2.458;2023-02-01T08:25:21;8;8;
73631;PMS5003;61924;53.268;-2.458;2023-02-01T08:27:46;7;6;
73631;PMS5003;61924;53.268;-2.458;2023-02-01T08:30:12;7;7;
73631;PMS5003;61924;53.268;-2.458;2023-02-01T08:32:37;7;7;
73631;PMS5003;61924;53.268;-2.458;2023-02-01T08:35:03;7;7;
73631;PMS5003;61924;53.268;-2.458;2023-02-01T08:37:28;8;8;
73631;PMS5003;61924;53.268;-2.458;2023-02-01T08:39:53;7;7;
73631;PMS5003;61924;53.268;-2.458;2023-02-01T08:42:19;9;8;
73631;PMS5003;61924;53.268;-2.458;2023-02-01T08:44:44;7;6;
73631;PMS5003;61924;53.268;-2.458;2023-02-01T08:47:09;9;9;
73631;PMS5003;61924;53.268;-2.458;2023-02-01T08:49:35;7;7;
73631;PMS5003;61924;53.268;-2.458;2023-02-01T08:52:00;9;7;
73631;PMS5003;61924;53.268;-2.458;2023-02-01T08:54:26;7;7;
73631;PMS5003;61924;53.268;-2.458;2023-02-01T08:56:51;9;7;
73631;PMS5003;61924;53.268;-2.458;2023-02-01T08:59:16;7;7;
73631;PMS5003;61924;53.268;-2.458;2023-02-01T09:01:42;7;6;
73631;PMS5003;61924;53.268;-2.458;2023-02-01T09:04:07;5;4;
73631;PMS5003;61924;53.268;-2.458;2023-02-01T09:06:33;5;5;
73631;PMS5003;61924;53.268;-2.458;2023-02-01T09:08:58;6;6;
73631;PMS5003;61924;53.268;-2.458;2023-02-01T09:11:24;6;6;
73631;PMS5003;61924;53.268;-2.458;2023-02-01T09:13:49;7;7;
73631;PMS5003;61924;53.268;-2.458;2023-02-01T09:16:14;4;4;
73631;PMS5003;61924;53.268;-2.458;2023-02-01T09:18:40;5;5;
73631;PMS5003;61924;53.268;-2.458;2023-02-01T09:21:05;4;4;
73631;PMS5003;61924;53.268;-2.458;2023-02-01T09:23:31;6;5;
73631;PMS5003;61924;53.268;-2.458;2023-02-01T09:25:58;7;6;
73631;PMS5003;61924;53.268;-2.458;2023-02-01T09:28:22;8;6;
73631;PMS5003;61924;53.268;-2.458;2023-02-01T09:30:48;5;5;
73631;PMS5003;61924;53.268;-2.458;2023-02-01T09:33:14;6;6;
73631;PMS5003;61924;53.268;-2.458;2023-02-01T09:35:39;7;7;
73631;PMS5003;61924;53.268;-2.458;2023-02-01T09:38:05;5;5;
73631;PMS5003;61924;53.268;-2.458;2023-02-01T09:40:30;5;5;
73631;PMS5003;61924;53.268;-2.458;2023-02-01T09:43:00;9;9;
73631;PMS5003;61924;53.268;-2.458;2023-02-01T09:45:22;6;6;
73631;PMS5003;61924;53.268;-2.458;2023-02-01T09:47:46;7;6;
73631;PMS5003;61924;53.268;-2.458;2023-02-01T09:50:12;5;5;
73631;PMS5003;61924;53.268;-2.458;2023-02-01T09:52:40;8;6;
73631;PMS5003;61924;53.268;-2.458;2023-02-01T09:55:03;5;4;
73631;PMS5003;61924;53.268;-2.458;2023-02-01T09:57:40;2;2;
73631;PMS5003;61924;53.268;-2.458;2023-02-01T09:59:54;5;5;
73631;PMS5003;61924;53.268;-2.458;2023-02-01T10:02:20;5;4;
73631;PMS5003;61924;53.268;-2.458;2023-02-01T10:04:45;6;6;
73631;PMS5003;61924;53.268;-2.458;2023-02-01T10:07:13;6;5;
73631;PMS5003;61924;53.268;-2.458;2023-02-01T10:09:41;4;4;
73631;PMS5003;61924;53.268;-2.458;2023-02-01T10:12:09;5;5;
73631;PMS5003;61924;53.268;-2.458;2023-02-01T10:14:32;4;4;
73631;PMS5003;61924;53.268;-2.458;2023-02-01T10:16:54;4;4;
73631;PMS5003;61924;53.268;-2.458;2023-02-01T10:19:21;5;4;
73631;PMS5003;61924;53.268;-2.458;2023-02-01T10:21:46;6;5;
73631;PMS5003;61924;53.268;-2.458;2023-02-01T10:24:18;6;6;
73631;PMS5003;61924;53.268;-2.458;2023-02-01T10:26:35;5;4;
73631;PMS5003;61924;53.268;-2.458;2023-02-01T10:29:00;4;3;
73631;PMS5003;61924;53.268;-2.458;2023-02-01T10:31:25;5;5;
73631;PMS5003;61924;53.268;-2.458;2023-02-01T10:33:51;3;3;
73631;PMS5003;61924;53.268;-2.458;2023-02-01T10:36:16;4;4;
73631;PMS5003;61924;53.268;-2.458;2023-02-01T10:38:41;5;5;
73631;PMS5003;61924;53.268;-2.458;2023-02-01T10:41:08;4;3;
73631;PMS5003;61924;53.268;-2.458;2023-02-01T10:43:32;3;3;
73631;PMS5003;61924;53.268;-2.458;2023-02-01T10:45:57;4;4;
73631;PMS5003;61924;53.268;-2.458;2023-02-01T10:48:23;3;3;
73631;PMS5003;61924;53.268;-2.458;2023-02-01T10:50:49;5;5;
73631;PMS5003;61924;53.268;-2.458;2023-02-01T10:53:14;5;5;
73631;PMS5003;61924;53.268;-2.458;2023-02-01T10:55:39;4;4;
73631;PMS5003;61924;53.268;-2.458;2023-02-01T10:58:05;4;3;
73631;PMS5003;61924;53.268;-2.458;2023-02-01T11:00:34;6;6;
73631;PMS5003;61924;53.268;-2.458;2023-02-01T11:02:55;3;3;
73631;PMS5003;61924;53.268;-2.458;2023-02-01T11:05:20;4;4;
73631;PMS5003;61924;53.268;-2.458;2023-02-01T11:07:47;3;3;
73631;PMS5003;61924;53.268;-2.458;2023-02-01T11:10:13;3;3;
73631;PMS5003;61924;53.268;-2.458;2023-02-01T11:12:37;3;3;
73631;PMS5003;61924;53.268;-2.458;2023-02-01T11:15:12;2;2;
73631;PMS5003;61924;53.268;-2.458;2023-02-01T11:17:28;1;1;
73631;PMS5003;61924;53.268;-2.458;2023-02-01T11:19:56;4;3;
73631;PMS5003;61924;53.268;-2.458;2023-02-01T11:22:18;5;5;
73631;PMS5003;61924;53.268;-2.458;2023-02-01T11:24:44;6;5;
73631;PMS5003;61924;53.268;-2.458;2023-02-01T11:27:13;3;3;
73631;PMS5003;61924;53.268;-2.458;2023-02-01T11:29:35;3;2;
73631;PMS5003;61924;53.268;-2.458;2023-02-01T11:32:00;5;4;
73631;PMS5003;61924;53.268;-2.458;2023-02-01T11:34:26;3;2;
73631;PMS5003;61924;53.268;-2.458;2023-02-01T11:36:51;6;5;
73631;PMS5003;61924;53.268;-2.458;2023-02-01T11:39:18;4;4;
73631;PMS5003;61924;53.268;-2.458;2023-02-01T11:41:42;3;2;
73631;PMS5003;61924;53.268;-2.458;2023-02-01T11:44:15;7;7;
73631;PMS5003;61924;53.268;-2.458;2023-02-01T11:46:33;3;3;
73631;PMS5003;61924;53.268;-2.458;2023-02-01T11:49:13;4;3;
73631;PMS5003;61924;53.268;-2.458;2023-02-01T11:51:27;3;3;
73631;PMS5003;61924;53.268;-2.458;2023-02-01T11:53:57;3;3;
73631;PMS5003;61924;53.268;-2.458;2023-02-01T11:56:16;4;4;
73631;PMS5003;61924;53.268;-2.458;2023-02-01T11:58:46;3;3;
73631;PMS5003;61924;53.268;-2.458;2023-02-01T12:01:10;2;2;
73631;PMS5003;61924;53.268;-2.458;2023-02-01T12:03:36;3;3;
73631;PMS5003;61924;53.268;-2.458;2023-02-01T12:05:57;3;2;
73631;PMS5003;61924;53.268;-2.458;2023-02-01T12:08:26;2;2;
73631;PMS5003;61924;53.268;-2.458;2023-02-01T12:10:50;2;2;
73631;PMS5003;61924;53.268;-2.458;2023-02-01T12:13:14;3;3;
73631;PMS5003;61924;53.268;-2.458;2023-02-01T12:15:44;5;3;
73631;PMS5003;61924;53.268;-2.458;2023-02-01T12:18:10;3;3;
73631;PMS5003;61924;53.268;-2.458;2023-02-01T12:20:34;4;4;
73631;PMS5003;61924;53.268;-2.458;2023-02-01T12:22:55;3;3;
73631;PMS5003;61924;53.268;-2.458;2023-02-01T12:25:20;1;1;
73631;PMS5003;61924;53.268;-2.458;2023-02-01T12:27:48;3;3;
73631;PMS5003;61924;53.268;-2.458;2023-02-01T12:30:19;5;3;
73631;PMS5003;61924;53.268;-2.458;2023-02-01T12:32:39;4;3;
73631;PMS5003;61924;53.268;-2.458;2023-02-01T12:35:04;2;2;
73631;PMS5003;61924;53.268;-2.458;2023-02-01T12:37:31;2;2;
73631;PMS5003;61924;53.268;-2.458;2023-02-01T12:39:53;3;2;
73631;PMS5003;61924;53.268;-2.458;2023-02-01T12:42:16;4;4;
73631;PMS5003;61924;53.268;-2.458;2023-02-01T12:44:42;2;1;
73631;PMS5003;61924;53.268;-2.458;2023-02-01T12:47:06;3;2;
73631;PMS5003;61924;53.268;-2.458;2023-02-01T12:49:33;0;0;
73631;PMS5003;61924;53.268;-2.458;2023-02-01T12:51:58;1;1;
73631;PMS5003;61924;53.268;-2.458;2023-02-01T12:54:22;3;2;
73631;PMS5003;61924;53.268;-2.458;2023-02-01T12:56:47;1;1;
73631;PMS5003;61924;53.268;-2.458;2023-02-01T12:59:15;2;2;
73631;PMS5003;61924;53.268;-2.458;2023-02-01T13:01:38;3;3;
73631;PMS5003;61924;53.268;-2.458;2023-02-01T13:04:04;2;2;
73631;PMS5003;61924;53.268;-2.458;2023-02-01T13:06:29;4;3;
73631;PMS5003;61924;53.268;-2.458;2023-02-01T13:08:53;3;3;
73631;PMS5003;61924;53.268;-2.458;2023-02-01T13:11:20;2;2;
73631;PMS5003;61924;53.268;-2.458;2023-02-01T13:13:47;2;2;
73631;PMS5003;61924;53.268;-2.458;2023-02-01T13:16:13;2;1;
73631;PMS5003;61924;53.268;-2.458;2023-02-01T13:18:36;2;2;
73631;PMS5003;61924;53.268;-2.458;2023-02-01T13:21:03;3;3;
73631;PMS5003;61924;53.268;-2.458;2023-02-01T13:23:27;3;2;
73631;PMS5003;61924;53.268;-2.458;2023-02-01T13:25:53;6;6;
73631;PMS5003;61924;53.268;-2.458;2023-02-01T13:28:20;2;2;
73631;PMS5003;61924;53.268;-2.458;2023-02-01T13:30:50;3;3;
73631;PMS5003;61924;53.268;-2.458;2023-02-01T13:33:14;2;2;
73631;PMS5003;61924;53.268;-2.458;2023-02-01T13:35:39;2;2;
73631;PMS5003;61924;53.268;-2.458;2023-02-01T13:38:08;2;2;
73631;PMS5003;61924;53.268;-2.458;2023-02-01T13:40:31;1;1;
73631;PMS5003;61924;53.268;-2.458;2023-02-01T13:42:53;4;4;
73631;PMS5003;61924;53.268;-2.458;2023-02-01T13:45:19;2;2;
73631;PMS5003;61924;53.268;-2.458;2023-02-01T13:47:44;3;2;
73631;PMS5003;61924;53.268;-2.458;2023-02-01T13:50:12;2;2;
73631;PMS5003;61924;53.268;-2.458;2023-02-01T13:52:36;2;1;
73631;PMS5003;61924;53.268;-2.458;2023-02-01T13:55:04;2;2;
73631;PMS5003;61924;53.268;-2.458;2023-02-01T13:57:31;3;3;
73631;PMS5003;61924;53.268;-2.458;2023-02-01T13:59:50;2;2;
73631;PMS5003;61924;53.268;-2.458;2023-02-01T14:02:48;1;1;
73631;PMS5003;61924;53.268;-2.458;2023-02-01T14:04:47;3;2;
73631;PMS5003;61924;53.268;-2.458;2023-02-01T14:07:15;2;2;
73631;PMS5003;61924;53.268;-2.458;2023-02-01T14:09:32;2;2;
73631;PMS5003;61924;53.268;-2.458;2023-02-01T14:11:56;2;2;
73631;PMS5003;61924;53.268;-2.458;2023-02-01T14:14:37;1;1;
73631;PMS5003;61924;53.268;-2.458;2023-02-01T14:19:19;1;1;
73631;PMS5003;61924;53.268;-2.458;2023-02-01T14:21:46;2;2;
73631;PMS5003;61924;53.268;-2.458;2023-02-01T14:24:04;3;1;
73631;PMS5003;61924;53.268;-2.458;2023-02-01T14:26:41;1;1;
73631;PMS5003;61924;53.268;-2.458;2023-02-01T14:28:57;3;2;
73631;PMS5003;61924;53.268;-2.458;2023-02-01T14:31:38;2;2;
73631;PMS5003;61924;53.268;-2.458;2023-02-01T14:33:44;2;2;
73631;PMS5003;61924;53.268;-2.458;2023-02-01T14:36:11;0;0;
73631;PMS5003;61924;53.268;-2.458;2023-02-01T14:38:36;3;3;
73631;PMS5003;61924;53.268;-2.458;2023-02-01T14:41:33;3;3;
73631;PMS5003;61924;53.268;-2.458;2023-02-01T14:43:49;1;0;
73631;PMS5003;61924;53.268;-2.458;2023-02-01T14:45:51;1;1;
73631;PMS5003;61924;53.268;-2.458;2023-02-01T14:48:48;2;2;
73631;PMS5003;61924;53.268;-2.458;2023-02-01T14:50:42;2;1;
73631;PMS5003;61924;53.268;-2.458;2023-02-01T14:53:13;2;2;
73631;PMS5003;61924;53.268;-2.458;2023-02-01T14:55:35;2;2;
73631;PMS5003;61924;53.268;-2.458;2023-02-01T14:57:59;3;3;
73631;PMS5003;61924;53.268;-2.458;2023-02-01T15:00:25;2;2;
73631;PMS5003;61924;53.268;-2.458;2023-02-01T15:02:50;2;1;
73631;PMS5003;61924;53.268;-2.458;2023-02-01T15:05:22;1;1;
73631;PMS5003;61924;53.268;-2.458;2023-02-01T15:07:40;1;1;
73631;PMS5003;61924;53.268;-2.458;2023-02-01T15:10:05;2;2;
73631;PMS5003;61924;53.268;-2.458;2023-02-01T15:12:30;1;1;
73631;PMS5003;61924;53.268;-2.458;2023-02-01T15:15:09;2;1;
73631;PMS5003;61924;53.268;-2.458;2023-02-01T15:17:22;2;2;
73631;PMS5003;61924;53.268;-2.458;2023-02-01T15:19:55;2;2;
73631;PMS5003;61924;53.268;-2.458;2023-02-01T15:22:13;1;1;
73631;PMS5003;61924;53.268;-2.458;2023-02-01T15:24:37;1;1;
73631;PMS5003;61924;53.268;-2.458;2023-02-01T15:27:04;4;3;
73631;PMS5003;61924;53.268;-2.458;2023-02-01T15:29:28;1;1;
73631;PMS5003;61924;53.268;-2.458;2023-02-01T15:31:54;1;1;
73631;PMS5003;61924;53.268;-2.458;2023-02-01T15:34:20;1;1;
73631;PMS5003;61924;53.268;-2.458;2023-02-01T15:36:45;2;2;
73631;PMS5003;61924;53.268;-2.458;2023-02-01T15:39:12;2;1;
73631;PMS5003;61924;53.268;-2.458;2023-02-01T15:41:35;4;3;
73631;PMS5003;61924;53.268;-2.458;2023-02-01T15:44:03;2;2;
73631;PMS5003;61924;53.268;-2.458;2023-02-01T15:46:29;1;1;
73631;PMS5003;61924;53.268;-2.458;2023-02-01T15:48:52;2;2;
73631;PMS5003;61924;53.268;-2.458;2023-02-01T15:51:17;1;1;
73631;PMS5003;61924;53.268;-2.458;2023-02-01T15:53:43;0;0;
73631;PMS5003;61924;53.268;-2.458;2023-02-01T15:56:07;2;2;
73631;PMS5003;61924;53.268;-2.458;2023-02-01T15:58:33;1;1;
73631;PMS5003;61924;53.268;-2.458;2023-02-01T16:00:59;2;2;
73631;PMS5003;61924;53.268;-2.458;2023-02-01T16:03:25;1;1;
73631;PMS5003;61924;53.268;-2.458;2023-02-01T16:05:54;1;1;
73631;PMS5003;61924;53.268;-2.458;2023-02-01T16:08:16;1;1;
73631;PMS5003;61924;53.268;-2.458;2023-02-01T16:10:42;1;1;
73631;PMS5003;61924;53.268;-2.458;2023-02-01T16:13:06;0;0;
73631;PMS5003;61924;53.268;-2.458;2023-02-01T16:15:31;1;1;